Hlavní strana
METAR-TAF:

METAR-TAF

Letiště :

Bergen, Norsko

zeměpisná šířka: 60-17N, zeměpisná délka: 005-14E, výška: 5 m

Aktuální stav počasí

Zpráva byla vytvořena před 33 minutami, v 03:20 UTC
Jihovýchodní vítr 11 kt
Teplota 6°C
Vlhkost vzduchu 87%
Tlak 1019 hPa
Viditelnost 10 km a více
Oblačno až skoro zataženo ve výšce 1400 ft

METAR: ENBR 050320Z 14011KT 9999 BKN014 06/04 Q1019 RMK WIND 1200FT 15016KT

Čas: 05:53 (03:53 UTC)

Předpověď počasí

Předpověď platná od 05 v 00 UTC do 05 v 24 UTC
Jihojihovýchodní vítr 15 kt
Viditelnost 10 km a více
Polojasno ve výšce 1000 ft
Oblačno až skoro zataženo ve výšce 1500 ft
slabý déšť
Dočasný
od 05 v 00 UTC do 05 v 08 UTC
Oblačno až skoro zataženo ve výšce 900 ft
Dočasný
od 05 v 09 UTC do 05 v 17 UTC
Jihojihovýchodní vítr 20 kt s nárazy do 35 kt

TAF: ENBR 0500/0524 15015KT 9999 -RA SCT010 BKN015 TEMPO 0500/0508 BKN009 TEMPO 0509/0517 15020G35KT

Stav a předpovědi počasí z více než 4 000 letišť (zprávy METAR a TAF).

Červené a žluté tečky na mapě představují dostupné meteorologické stanice.

Když kurzor umístíte na tečku, zobrazí se název stanice.

Pak kliknutím zobrazíte stav a předpověď počasí.

Chcete-li změnit mapu, kliknutím na zelené tlačítko se znaménkem +mapu přiblížíte, kliknutím na zelené tlačítko se znaménkem – mapu oddálíte a kliknutím na zelené šipky přejdete na sousední mapy.


METAR-TAF: